sensor_id;sensor_type;location;lat;lon;timestamp;pressure;altitude;pressure_sealevel;temperature;humidity
9462;BME280;4769;42.660;23.262;2023-08-06T00:01:39;92897.78;;;22.47;100.00
9462;BME280;4769;42.660;23.262;2023-08-06T00:04:04;92936.59;;;22.61;100.00
9462;BME280;4769;42.660;23.262;2023-08-06T00:06:30;92936.59;;;22.77;100.00
9462;BME280;4769;42.660;23.262;2023-08-06T00:08:56;92931.00;;;22.82;100.00
9462;BME280;4769;42.660;23.262;2023-08-06T00:11:24;92943.94;;;22.92;100.00
9462;BME280;4769;42.660;23.262;2023-08-06T00:13:50;92944.16;;;22.71;100.00
9462;BME280;4769;42.660;23.262;2023-08-06T00:16:15;92930.81;;;22.47;100.00
9462;BME280;4769;42.660;23.262;2023-08-06T00:18:41;92933.69;;;22.54;100.00
9462;BME280;4769;42.660;23.262;2023-08-06T00:21:07;92941.19;;;22.49;100.00
9462;BME280;4769;42.660;23.262;2023-08-06T00:23:32;92943.53;;;22.50;100.00
9462;BME280;4769;42.660;23.262;2023-08-06T00:25:58;92931.47;;;22.44;100.00
9462;BME280;4769;42.660;23.262;2023-08-06T00:28:26;92929.41;;;22.65;100.00
9462;BME280;4769;42.660;23.262;2023-08-06T00:30:53;92937.47;;;22.81;100.00
9462;BME280;4769;42.660;23.262;2023-08-06T00:33:18;92931.00;;;22.82;100.00
9462;BME280;4769;42.660;23.262;2023-08-06T00:35:44;92911.31;;;22.78;100.00
9462;BME280;4769;42.660;23.262;2023-08-06T00:38:09;92911.41;;;22.81;100.00
9462;BME280;4769;42.660;23.262;2023-08-06T00:40:35;92913.66;;;22.79;100.00
9462;BME280;4769;42.660;23.262;2023-08-06T00:43:01;92919.28;;;22.90;100.00
9462;BME280;4769;42.660;23.262;2023-08-06T00:45:29;92917.75;;;22.89;100.00
9462;BME280;4769;42.660;23.262;2023-08-06T00:47:55;92915.47;;;22.75;100.00
9462;BME280;4769;42.660;23.262;2023-08-06T00:50:21;92908.03;;;22.57;100.00
9462;BME280;4769;42.660;23.262;2023-08-06T00:52:47;92911.31;;;22.50;100.00
9462;BME280;4769;42.660;23.262;2023-08-06T00:55:12;92907.28;;;22.44;100.00
9462;BME280;4769;42.660;23.262;2023-08-06T00:57:38;92900.81;;;22.45;100.00
9462;BME280;4769;42.660;23.262;2023-08-06T01:00:05;92891.66;;;22.34;99.06
9462;BME280;4769;42.660;23.262;2023-08-06T01:02:34;92901.75;;;22.25;99.06
9462;BME280;4769;42.660;23.262;2023-08-06T01:05:00;92896.63;;;22.20;98.66
9462;BME280;4769;42.660;23.262;2023-08-06T01:07:37;92867.44;;;22.19;98.36
9462;BME280;4769;42.660;23.262;2023-08-06T01:10:28;92869.47;;;22.10;99.38
9462;BME280;4769;42.660;23.262;2023-08-06T01:13:06;92867.59;;;22.10;100.00
9462;BME280;4769;42.660;23.262;2023-08-06T01:15:41;92874.84;;;22.37;100.00
9462;BME280;4769;42.660;23.262;2023-08-06T01:18:12;92861.19;;;22.42;100.00
9462;BME280;4769;42.660;23.262;2023-08-06T01:20:40;92878.81;;;22.55;99.62
9462;BME280;4769;42.660;23.262;2023-08-06T01:23:06;92881.28;;;22.21;99.94
9462;BME280;4769;42.660;23.262;2023-08-06T01:25:35;92879.88;;;22.11;100.00
9462;BME280;4769;42.660;23.262;2023-08-06T01:28:09;92880.31;;;22.13;100.00
9462;BME280;4769;42.660;23.262;2023-08-06T01:30:39;92858.19;;;22.04;100.00
9462;BME280;4769;42.660;23.262;2023-08-06T01:33:09;92870.03;;;22.15;99.60
9462;BME280;4769;42.660;23.262;2023-08-06T01:35:40;92851.34;;;22.07;100.00
9462;BME280;4769;42.660;23.262;2023-08-06T01:38:07;92855.47;;;22.16;100.00
9462;BME280;4769;42.660;23.262;2023-08-06T01:40:33;92855.72;;;22.11;100.00
9462;BME280;4769;42.660;23.262;2023-08-06T01:42:59;92844.59;;;21.97;100.00
9462;BME280;4769;42.660;23.262;2023-08-06T01:45:24;92852.53;;;21.94;100.00
9462;BME280;4769;42.660;23.262;2023-08-06T01:47:50;92861.97;;;21.76;100.00
9462;BME280;4769;42.660;23.262;2023-08-06T01:50:16;92857.13;;;21.81;100.00
9462;BME280;4769;42.660;23.262;2023-08-06T01:52:44;92863.44;;;21.73;100.00
9462;BME280;4769;42.660;23.262;2023-08-06T01:55:10;92864.78;;;21.55;100.00
9462;BME280;4769;42.660;23.262;2023-08-06T01:57:35;92858.97;;;21.41;100.00
9462;BME280;4769;42.660;23.262;2023-08-06T02:00:01;92861.84;;;21.60;100.00
9462;BME280;4769;42.660;23.262;2023-08-06T02:02:27;92836.00;;;21.68;100.00
9462;BME280;4769;42.660;23.262;2023-08-06T02:04:52;92828.97;;;21.87;100.00
9462;BME280;4769;42.660;23.262;2023-08-06T02:07:18;92838.41;;;21.97;100.00
9462;BME280;4769;42.660;23.262;2023-08-06T02:09:46;92842.53;;;22.06;100.00
9462;BME280;4769;42.660;23.262;2023-08-06T02:12:12;92837.53;;;21.93;100.00
9462;BME280;4769;42.660;23.262;2023-08-06T02:14:37;92849.63;;;21.87;100.00
9462;BME280;4769;42.660;23.262;2023-08-06T02:17:03;92851.31;;;21.91;100.00
9462;BME280;4769;42.660;23.262;2023-08-06T02:19:29;92866.97;;;21.89;100.00
9462;BME280;4769;42.660;23.262;2023-08-06T02:21:55;92861.75;;;22.08;100.00
9462;BME280;4769;42.660;23.262;2023-08-06T02:24:20;92872.22;;;21.98;100.00
9462;BME280;4769;42.660;23.262;2023-08-06T02:26:48;92862.06;;;21.91;100.00
9462;BME280;4769;42.660;23.262;2023-08-06T02:29:14;92843.28;;;21.67;100.00
9462;BME280;4769;42.660;23.262;2023-08-06T02:31:40;92836.94;;;21.48;100.00
9462;BME280;4769;42.660;23.262;2023-08-06T02:34:05;92838.03;;;21.59;100.00
9462;BME280;4769;42.660;23.262;2023-08-06T02:36:31;92863.63;;;21.68;100.00
9462;BME280;4769;42.660;23.262;2023-08-06T02:38:57;92879.97;;;21.75;100.00
9462;BME280;4769;42.660;23.262;2023-08-06T02:41:22;92883.31;;;21.84;100.00
9462;BME280;4769;42.660;23.262;2023-08-06T02:43:52;92883.75;;;21.86;100.00
9462;BME280;4769;42.660;23.262;2023-08-06T02:46:18;92881.91;;;22.02;100.00
9462;BME280;4769;42.660;23.262;2023-08-06T02:48:43;92862.16;;;21.95;100.00
9462;BME280;4769;42.660;23.262;2023-08-06T02:51:09;92843.22;;;22.03;100.00
9462;BME280;4769;42.660;23.262;2023-08-06T02:53:35;92831.09;;;22.09;100.00
9462;BME280;4769;42.660;23.262;2023-08-06T02:56:00;92807.97;;;22.05;100.00
9462;BME280;4769;42.660;23.262;2023-08-06T02:58:26;92823.00;;;22.21;100.00
9462;BME280;4769;42.660;23.262;2023-08-06T03:01:05;92833.56;;;22.14;100.00
9462;BME280;4769;42.660;23.262;2023-08-06T03:03:31;92819.06;;;22.03;100.00
9462;BME280;4769;42.660;23.262;2023-08-06T03:05:57;92796.69;;;21.99;100.00
9462;BME280;4769;42.660;23.262;2023-08-06T03:08:23;92802.81;;;22.12;100.00
9462;BME280;4769;42.660;23.262;2023-08-06T03:10:49;92824.56;;;22.22;100.00
9462;BME280;4769;42.660;23.262;2023-08-06T03:13:14;92848.56;;;22.03;100.00
9462;BME280;4769;42.660;23.262;2023-08-06T03:15:40;92823.41;;;22.08;100.00
9462;BME280;4769;42.660;23.262;2023-08-06T03:18:08;92784.03;;;22.12;100.00
9462;BME280;4769;42.660;23.262;2023-08-06T03:20:34;92791.22;;;22.23;100.00
9462;BME280;4769;42.660;23.262;2023-08-06T03:23:00;92807.81;;;22.13;100.00
9462;BME280;4769;42.660;23.262;2023-08-06T03:25:25;92823.03;;;22.09;100.00
9462;BME280;4769;42.660;23.262;2023-08-06T03:27:51;92799.25;;;22.08;100.00
9462;BME280;4769;42.660;23.262;2023-08-06T03:30:17;92806.09;;;22.05;100.00
9462;BME280;4769;42.660;23.262;2023-08-06T03:32:42;92835.13;;;22.15;100.00
9462;BME280;4769;42.660;23.262;2023-08-06T03:35:11;92847.00;;;22.14;100.00
9462;BME280;4769;42.660;23.262;2023-08-06T03:37:36;92837.00;;;22.15;100.00
9462;BME280;4769;42.660;23.262;2023-08-06T03:40:03;92846.84;;;22.23;100.00
9462;BME280;4769;42.660;23.262;2023-08-06T03:42:29;92847.59;;;22.23;100.00
9462;BME280;4769;42.660;23.262;2023-08-06T03:44:54;92852.38;;;22.30;100.00
9462;BME280;4769;42.660;23.262;2023-08-06T03:47:20;92854.31;;;22.29;100.00
9462;BME280;4769;42.660;23.262;2023-08-06T03:49:45;92863.38;;;22.25;100.00
9462;BME280;4769;42.660;23.262;2023-08-06T03:52:14;92867.53;;;22.22;100.00
9462;BME280;4769;42.660;23.262;2023-08-06T03:54:39;92867.78;;;22.17;100.00
9462;BME280;4769;42.660;23.262;2023-08-06T03:57:05;92853.03;;;22.11;100.00
9462;BME280;4769;42.660;23.262;2023-08-06T03:59:31;92857.81;;;22.18;100.00
9462;BME280;4769;42.660;23.262;2023-08-06T04:01:57;92866.41;;;22.23;100.00
9462;BME280;4769;42.660;23.262;2023-08-06T04:04:22;92874.59;;;22.15;100.00
9462;BME280;4769;42.660;23.262;2023-08-06T04:06:48;92868.06;;;22.28;100.00
9462;BME280;4769;42.660;23.262;2023-08-06T04:09:16;92869.28;;;22.30;100.00
9462;BME280;4769;42.660;23.262;2023-08-06T04:11:42;92872.63;;;22.39;100.00
9462;BME280;4769;42.660;23.262;2023-08-06T04:14:08;92880.59;;;22.36;100.00
9462;BME280;4769;42.660;23.262;2023-08-06T04:16:33;92880.22;;;22.37;100.00
9462;BME280;4769;42.660;23.262;2023-08-06T04:18:59;92877.00;;;22.32;100.00
9462;BME280;4769;42.660;23.262;2023-08-06T04:21:25;92882.47;;;22.35;100.00
9462;BME280;4769;42.660;23.262;2023-08-06T04:23:50;92870.50;;;22.45;100.00
9462;BME280;4769;42.660;23.262;2023-08-06T04:26:19;92869.94;;;22.39;100.00
9462;BME280;4769;42.660;23.262;2023-08-06T04:28:44;92865.78;;;22.42;100.00
9462;BME280;4769;42.660;23.262;2023-08-06T04:31:10;92853.81;;;22.39;100.00
9462;BME280;4769;42.660;23.262;2023-08-06T04:33:36;92871.66;;;22.59;100.00
9462;BME280;4769;42.660;23.262;2023-08-06T04:36:01;92855.00;;;22.69;100.00
9462;BME280;4769;42.660;23.262;2023-08-06T04:38:27;92860.34;;;22.81;100.00
9462;BME280;4769;42.660;23.262;2023-08-06T04:40:53;92850.00;;;22.83;100.00
9462;BME280;4769;42.660;23.262;2023-08-06T04:43:21;92839.88;;;22.61;100.00
9462;BME280;4769;42.660;23.262;2023-08-06T04:45:48;92825.00;;;22.52;100.00
9462;BME280;4769;42.660;23.262;2023-08-06T04:48:14;92812.41;;;22.40;100.00
9462;BME280;4769;42.660;23.262;2023-08-06T04:50:43;92814.09;;;22.45;100.00
9462;BME280;4769;42.660;23.262;2023-08-06T04:53:09;92816.94;;;22.52;100.00
9462;BME280;4769;42.660;23.262;2023-08-06T04:55:34;92799.69;;;22.53;100.00
9462;BME280;4769;42.660;23.262;2023-08-06T04:58:00;92797.38;;;22.67;100.00
9462;BME280;4769;42.660;23.262;2023-08-06T05:00:28;92790.09;;;22.67;100.00
9462;BME280;4769;42.660;23.262;2023-08-06T05:02:54;92786.22;;;22.65;100.00
9462;BME280;4769;42.660;23.262;2023-08-06T05:05:20;92778.78;;;22.31;100.00
9462;BME280;4769;42.660;23.262;2023-08-06T05:07:48;92789.72;;;22.10;100.00
9462;BME280;4769;42.660;23.262;2023-08-06T05:10:14;92802.22;;;21.91;100.00
9462;BME280;4769;42.660;23.262;2023-08-06T05:12:40;92802.84;;;21.48;100.00
9462;BME280;4769;42.660;23.262;2023-08-06T05:15:06;92804.91;;;21.15;100.00
9462;BME280;4769;42.660;23.262;2023-08-06T05:17:35;92813.19;;;20.98;100.00
9462;BME280;4769;42.660;23.262;2023-08-06T05:20:00;92813.94;;;20.87;100.00
9462;BME280;4769;42.660;23.262;2023-08-06T05:22:26;92805.47;;;21.09;100.00
9462;BME280;4769;42.660;23.262;2023-08-06T05:24:52;92818.88;;;21.09;100.00
9462;BME280;4769;42.660;23.262;2023-08-06T05:27:17;92821.22;;;21.10;100.00
9462;BME280;4769;42.660;23.262;2023-08-06T05:29:43;92808.84;;;21.06;100.00
9462;BME280;4769;42.660;23.262;2023-08-06T05:32:09;92800.69;;;21.26;100.00
9462;BME280;4769;42.660;23.262;2023-08-06T05:34:37;92808.03;;;21.05;100.00
9462;BME280;4769;42.660;23.262;2023-08-06T05:37:04;92801.91;;;21.17;100.00
9462;BME280;4769;42.660;23.262;2023-08-06T05:39:29;92798.88;;;21.30;100.00
9462;BME280;4769;42.660;23.262;2023-08-06T05:41:55;92806.44;;;21.52;100.00
9462;BME280;4769;42.660;23.262;2023-08-06T05:44:21;92798.78;;;21.66;100.00
9462;BME280;4769;42.660;23.262;2023-08-06T05:46:48;92800.59;;;21.74;100.00
9462;BME280;4769;42.660;23.262;2023-08-06T05:49:14;92806.53;;;21.95;100.00
9462;BME280;4769;42.660;23.262;2023-08-06T05:51:42;92810.34;;;21.55;100.00
9462;BME280;4769;42.660;23.262;2023-08-06T05:54:08;92816.50;;;21.55;100.00
9462;BME280;4769;42.660;23.262;2023-08-06T05:56:34;92816.25;;;21.48;100.00
9462;BME280;4769;42.660;23.262;2023-08-06T05:58:59;92817.31;;;22.23;100.00
9462;BME280;4769;42.660;23.262;2023-08-06T06:01:25;92823.28;;;22.59;100.00
9462;BME280;4769;42.660;23.262;2023-08-06T06:03:51;92824.25;;;22.51;100.00
9462;BME280;4769;42.660;23.262;2023-08-06T06:06:16;92826.91;;;22.24;100.00
9462;BME280;4769;42.660;23.262;2023-08-06T06:08:45;92843.50;;;22.41;100.00
9462;BME280;4769;42.660;23.262;2023-08-06T06:11:10;92835.38;;;22.65;100.00
9462;BME280;4769;42.660;23.262;2023-08-06T06:13:36;92834.69;;;23.15;100.00
9462;BME280;4769;42.660;23.262;2023-08-06T06:16:02;92851.56;;;23.62;97.87
9462;BME280;4769;42.660;23.262;2023-08-06T06:18:29;92847.69;;;22.82;94.90
9462;BME280;4769;42.660;23.262;2023-08-06T06:20:54;92855.59;;;22.63;97.17
9462;BME280;4769;42.660;23.262;2023-08-06T06:23:20;92859.97;;;22.40;97.37
9462;BME280;4769;42.660;23.262;2023-08-06T06:25:50;92855.09;;;22.57;99.82
9462;BME280;4769;42.660;23.262;2023-08-06T06:28:15;92871.13;;;22.54;98.14
9462;BME280;4769;42.660;23.262;2023-08-06T06:30:42;92869.63;;;22.29;100.00
9462;BME280;4769;42.660;23.262;2023-08-06T06:33:07;92873.03;;;22.26;99.75
9462;BME280;4769;42.660;23.262;2023-08-06T06:35:33;92869.84;;;22.36;99.52
9462;BME280;4769;42.660;23.262;2023-08-06T06:37:59;92867.03;;;22.32;98.99
9462;BME280;4769;42.660;23.262;2023-08-06T06:40:25;92888.25;;;22.49;98.64
9462;BME280;4769;42.660;23.262;2023-08-06T06:42:53;92891.16;;;22.56;99.54
9462;BME280;4769;42.660;23.262;2023-08-06T06:45:19;92900.59;;;22.38;100.00
9462;BME280;4769;42.660;23.262;2023-08-06T06:47:44;92899.41;;;22.24;100.00
9462;BME280;4769;42.660;23.262;2023-08-06T06:50:10;92899.47;;;22.39;100.00
9462;BME280;4769;42.660;23.262;2023-08-06T06:52:35;92901.09;;;22.56;99.72
9462;BME280;4769;42.660;23.262;2023-08-06T06:55:01;92904.09;;;22.66;94.18
9462;BME280;4769;42.660;23.262;2023-08-06T06:57:27;92914.34;;;22.76;91.94
9462;BME280;4769;42.660;23.262;2023-08-06T06:59:55;92920.31;;;22.70;91.34
9462;BME280;4769;42.660;23.262;2023-08-06T07:02:21;92924.06;;;22.96;89.29
9462;BME280;4769;42.660;23.262;2023-08-06T07:04:47;92922.28;;;23.16;89.15
9462;BME280;4769;42.660;23.262;2023-08-06T07:07:12;92930.97;;;23.56;87.03
9462;BME280;4769;42.660;23.262;2023-08-06T07:09:38;92927.34;;;23.64;85.66
9462;BME280;4769;42.660;23.262;2023-08-06T07:12:05;92934.19;;;23.93;84.23
9462;BME280;4769;42.660;23.262;2023-08-06T07:14:30;92928.28;;;23.71;82.97
9462;BME280;4769;42.660;23.262;2023-08-06T07:16:59;92935.41;;;23.79;79.53
9462;BME280;4769;42.660;23.262;2023-08-06T07:19:24;92944.31;;;24.15;75.71
9462;BME280;4769;42.660;23.262;2023-08-06T07:21:50;92936.84;;;24.43;74.59
9462;BME280;4769;42.660;23.262;2023-08-06T07:24:16;92944.88;;;24.24;74.10
9462;BME280;4769;42.660;23.262;2023-08-06T07:26:41;92942.34;;;23.96;76.05
9462;BME280;4769;42.660;23.262;2023-08-06T07:29:07;92940.59;;;24.04;73.23
9462;BME280;4769;42.660;23.262;2023-08-06T07:31:33;92931.69;;;23.68;75.31
9462;BME280;4769;42.660;23.262;2023-08-06T07:34:01;92945.28;;;23.75;72.87
9462;BME280;4769;42.660;23.262;2023-08-06T07:36:27;92935.16;;;23.69;74.19
9462;BME280;4769;42.660;23.262;2023-08-06T07:38:52;92939.34;;;24.17;73.39
9462;BME280;4769;42.660;23.262;2023-08-06T07:41:18;92927.53;;;24.40;71.71
9462;BME280;4769;42.660;23.262;2023-08-06T07:43:44;92928.19;;;24.53;70.54
9462;BME280;4769;42.660;23.262;2023-08-06T07:46:09;92936.75;;;24.39;73.15
9462;BME280;4769;42.660;23.262;2023-08-06T07:48:35;92936.59;;;24.67;71.65
9462;BME280;4769;42.660;23.262;2023-08-06T07:51:04;92930.09;;;24.52;70.39
9462;BME280;4769;42.660;23.262;2023-08-06T07:53:29;92922.31;;;24.85;69.42
9462;BME280;4769;42.660;23.262;2023-08-06T07:55:55;92928.94;;;25.52;65.02
9462;BME280;4769;42.660;23.262;2023-08-06T07:58:23;92920.06;;;25.10;67.77
9462;BME280;4769;42.660;23.262;2023-08-06T08:00:49;92936.75;;;24.39;69.26
9462;BME280;4769;42.660;23.262;2023-08-06T08:03:15;92922.34;;;23.97;71.60
9462;BME280;4769;42.660;23.262;2023-08-06T08:05:41;92917.81;;;24.36;69.51
9462;BME280;4769;42.660;23.262;2023-08-06T08:08:10;92905.78;;;24.49;68.52
9462;BME280;4769;42.660;23.262;2023-08-06T08:10:36;92920.13;;;24.72;69.48
9462;BME280;4769;42.660;23.262;2023-08-06T08:13:02;92923.81;;;24.64;69.95
9462;BME280;4769;42.660;23.262;2023-08-06T08:15:28;92930.44;;;24.51;69.51
9462;BME280;4769;42.660;23.262;2023-08-06T08:17:54;92922.03;;;24.18;71.26
9462;BME280;4769;42.660;23.262;2023-08-06T08:20:20;92913.97;;;24.18;70.80
9462;BME280;4769;42.660;23.262;2023-08-06T08:22:46;92931.78;;;24.41;69.06
9462;BME280;4769;42.660;23.262;2023-08-06T08:25:15;92922.28;;;24.47;70.19
9462;BME280;4769;42.660;23.262;2023-08-06T08:27:41;92907.63;;;24.83;68.69
9462;BME280;4769;42.660;23.262;2023-08-06T08:30:07;92924.25;;;25.07;66.20
9462;BME280;4769;42.660;23.262;2023-08-06T08:32:33;92911.63;;;25.11;67.39
9462;BME280;4769;42.660;23.262;2023-08-06T08:35:00;92904.63;;;25.52;64.03
9462;BME280;4769;42.660;23.262;2023-08-06T08:37:26;92912.72;;;25.52;61.16
9462;BME280;4769;42.660;23.262;2023-08-06T08:39:52;92906.09;;;25.72;62.33
9462;BME280;4769;42.660;23.262;2023-08-06T08:42:20;92910.09;;;26.04;61.23
9462;BME280;4769;42.660;23.262;2023-08-06T08:44:46;92898.56;;;26.07;62.38
9462;BME280;4769;42.660;23.262;2023-08-06T08:47:12;92902.41;;;26.06;61.95
9462;BME280;4769;42.660;23.262;2023-08-06T08:49:38;92891.63;;;26.65;59.53
9462;BME280;4769;42.660;23.262;2023-08-06T08:52:06;92890.03;;;26.05;59.53
9462;BME280;4769;42.660;23.262;2023-08-06T08:54:33;92886.34;;;25.90;61.11
9462;BME280;4769;42.660;23.262;2023-08-06T08:56:59;92892.56;;;26.50;59.76
9462;BME280;4769;42.660;23.262;2023-08-06T08:59:28;92893.28;;;26.47;58.64
9462;BME280;4769;42.660;23.262;2023-08-06T09:01:54;92886.63;;;26.37;58.49
9462;BME280;4769;42.660;23.262;2023-08-06T09:04:21;92893.34;;;26.21;59.39
9462;BME280;4769;42.660;23.262;2023-08-06T09:06:50;92881.88;;;26.01;59.88
9462;BME280;4769;42.660;23.262;2023-08-06T09:09:20;92886.81;;;25.96;58.68
9462;BME280;4769;42.660;23.262;2023-08-06T09:11:48;92881.84;;;25.98;59.56
9462;BME280;4769;42.660;23.262;2023-08-06T09:14:13;92878.66;;;26.18;59.61
9462;BME280;4769;42.660;23.262;2023-08-06T09:16:42;92895.94;;;27.06;56.01
9462;BME280;4769;42.660;23.262;2023-08-06T09:19:08;92886.31;;;27.12;55.90
9462;BME280;4769;42.660;23.262;2023-08-06T09:21:37;92878.91;;;27.05;54.30
9462;BME280;4769;42.660;23.262;2023-08-06T09:24:07;92863.53;;;27.56;53.33
9462;BME280;4769;42.660;23.262;2023-08-06T09:26:33;92874.47;;;27.67;54.49
9462;BME280;4769;42.660;23.262;2023-08-06T09:28:59;92863.47;;;27.93;53.34
9462;BME280;4769;42.660;23.262;2023-08-06T09:31:32;92866.38;;;27.70;51.77
9462;BME280;4769;42.660;23.262;2023-08-06T09:34:01;92858.94;;;28.11;49.72
9462;BME280;4769;42.660;23.262;2023-08-06T09:36:27;92866.56;;;27.95;51.48
9462;BME280;4769;42.660;23.262;2023-08-06T09:38:52;92854.47;;;28.39;51.17
9462;BME280;4769;42.660;23.262;2023-08-06T09:41:26;92848.19;;;27.71;50.94
9462;BME280;4769;42.660;23.262;2023-08-06T09:43:52;92868.56;;;28.01;51.91
9462;BME280;4769;42.660;23.262;2023-08-06T09:46:17;92868.19;;;28.10;51.28
9462;BME280;4769;42.660;23.262;2023-08-06T09:48:45;92843.19;;;28.37;51.22
9462;BME280;4769;42.660;23.262;2023-08-06T09:51:14;92858.06;;;28.68;49.73
9462;BME280;4769;42.660;23.262;2023-08-06T09:53:40;92859.50;;;28.44;50.15
9462;BME280;4769;42.660;23.262;2023-08-06T09:56:06;92861.97;;;27.48;48.87
9462;BME280;4769;42.660;23.262;2023-08-06T09:58:32;92853.66;;;27.27;49.63
9462;BME280;4769;42.660;23.262;2023-08-06T10:00:58;92867.94;;;26.91;51.37
9462;BME280;4769;42.660;23.262;2023-08-06T10:03:25;92864.41;;;27.20;51.98
9462;BME280;4769;42.660;23.262;2023-08-06T10:05:51;92870.16;;;26.82;51.45
9462;BME280;4769;42.660;23.262;2023-08-06T10:08:20;92886.25;;;26.39;54.41
9462;BME280;4769;42.660;23.262;2023-08-06T10:10:45;92877.66;;;26.30;54.47
9462;BME280;4769;42.660;23.262;2023-08-06T10:13:12;92872.72;;;26.68;54.57
9462;BME280;4769;42.660;23.262;2023-08-06T10:15:39;92872.34;;;27.43;51.77
9462;BME280;4769;42.660;23.262;2023-08-06T10:18:06;92872.09;;;27.62;51.27
9462;BME280;4769;42.660;23.262;2023-08-06T10:20:33;92877.25;;;26.94;52.03
9462;BME280;4769;42.660;23.262;2023-08-06T10:23:03;92870.56;;;26.81;51.29
9462;BME280;4769;42.660;23.262;2023-08-06T10:25:35;92875.47;;;27.08;51.23
9462;BME280;4769;42.660;23.262;2023-08-06T10:28:07;92867.41;;;27.52;49.59
9462;BME280;4769;42.660;23.262;2023-08-06T10:30:35;92880.09;;;27.91;48.22
9462;BME280;4769;42.660;23.262;2023-08-06T10:33:06;92880.44;;;27.39;48.44
9462;BME280;4769;42.660;23.262;2023-08-06T10:35:36;92875.75;;;26.63;50.05
9462;BME280;4769;42.660;23.262;2023-08-06T10:38:08;92875.28;;;25.99;52.79
9462;BME280;4769;42.660;23.262;2023-08-06T10:40:36;92885.72;;;26.00;52.93
9462;BME280;4769;42.660;23.262;2023-08-06T10:43:03;92887.44;;;26.12;53.16
9462;BME280;4769;42.660;23.262;2023-08-06T10:45:29;92900.19;;;25.89;52.30
9462;BME280;4769;42.660;23.262;2023-08-06T10:47:55;92899.31;;;25.81;53.23
9462;BME280;4769;42.660;23.262;2023-08-06T10:50:21;92900.19;;;25.89;53.77
9462;BME280;4769;42.660;23.262;2023-08-06T10:52:47;92911.25;;;26.03;53.92
9462;BME280;4769;42.660;23.262;2023-08-06T10:55:13;92902.09;;;26.11;53.69
9462;BME280;4769;42.660;23.262;2023-08-06T10:57:41;92902.50;;;26.42;53.25
9462;BME280;4769;42.660;23.262;2023-08-06T11:00:09;92915.13;;;26.31;52.93
9462;BME280;4769;42.660;23.262;2023-08-06T11:02:35;92917.34;;;26.26;53.06
9462;BME280;4769;42.660;23.262;2023-08-06T11:05:06;92915.72;;;26.21;54.29
9462;BME280;4769;42.660;23.262;2023-08-06T11:07:31;92917.88;;;26.35;54.45
9462;BME280;4769;42.660;23.262;2023-08-06T11:10:01;92916.28;;;26.60;54.33
9462;BME280;4769;42.660;23.262;2023-08-06T11:12:27;92919.25;;;26.25;56.03
9462;BME280;4769;42.660;23.262;2023-08-06T11:14:55;92915.47;;;25.78;57.89
9462;BME280;4769;42.660;23.262;2023-08-06T11:17:21;92927.56;;;25.20;60.90
9462;BME280;4769;42.660;23.262;2023-08-06T11:19:46;92937.47;;;24.36;69.87
9462;BME280;4769;42.660;23.262;2023-08-06T11:22:14;92936.47;;;24.10;74.09
9462;BME280;4769;42.660;23.262;2023-08-06T11:24:39;92944.03;;;24.20;73.83
9462;BME280;4769;42.660;23.262;2023-08-06T11:27:11;92940.56;;;24.38;70.06
9462;BME280;4769;42.660;23.262;2023-08-06T11:29:37;92937.19;;;24.07;72.24
9462;BME280;4769;42.660;23.262;2023-08-06T11:32:06;92938.28;;;24.21;75.94
9462;BME280;4769;42.660;23.262;2023-08-06T11:34:32;92929.47;;;24.78;75.95
9462;BME280;4769;42.660;23.262;2023-08-06T11:36:58;92928.16;;;25.29;75.95
9462;BME280;4769;42.660;23.262;2023-08-06T11:39:24;92927.50;;;25.16;76.38
9462;BME280;4769;42.660;23.262;2023-08-06T11:41:49;92926.41;;;25.62;75.18
9462;BME280;4769;42.660;23.262;2023-08-06T11:44:18;92911.97;;;26.00;71.99
9462;BME280;4769;42.660;23.262;2023-08-06T11:46:50;92909.13;;;26.19;68.02
9462;BME280;4769;42.660;23.262;2023-08-06T11:49:19;92916.16;;;26.23;67.38
9462;BME280;4769;42.660;23.262;2023-08-06T11:51:45;92904.97;;;26.84;63.40
9462;BME280;4769;42.660;23.262;2023-08-06T11:54:11;92904.13;;;27.96;57.54
9462;BME280;4769;42.660;23.262;2023-08-06T11:56:36;92903.78;;;28.66;52.83
9462;BME280;4769;42.660;23.262;2023-08-06T11:59:02;92895.03;;;29.14;52.70
9462;BME280;4769;42.660;23.262;2023-08-06T12:01:28;92892.34;;;29.14;51.64
9462;BME280;4769;42.660;23.262;2023-08-06T12:03:58;92894.75;;;29.54;48.52
9462;BME280;4769;42.660;23.262;2023-08-06T12:06:29;92898.56;;;29.36;48.04
9462;BME280;4769;42.660;23.262;2023-08-06T12:08:55;92884.16;;;29.00;49.16
9462;BME280;4769;42.660;23.262;2023-08-06T12:11:21;92887.13;;;28.64;53.63
9462;BME280;4769;42.660;23.262;2023-08-06T12:13:50;92895.53;;;28.41;53.75
9462;BME280;4769;42.660;23.262;2023-08-06T12:16:16;92897.16;;;27.92;52.11
9462;BME280;4769;42.660;23.262;2023-08-06T12:18:42;92889.16;;;27.62;53.95
9462;BME280;4769;42.660;23.262;2023-08-06T12:21:07;92883.53;;;27.81;54.48
9462;BME280;4769;42.660;23.262;2023-08-06T12:23:36;92893.59;;;27.84;55.00
9462;BME280;4769;42.660;23.262;2023-08-06T12:26:01;92890.19;;;27.94;53.73
9462;BME280;4769;42.660;23.262;2023-08-06T12:28:27;92888.59;;;27.86;55.33
9462;BME280;4769;42.660;23.262;2023-08-06T12:30:52;92887.88;;;27.96;54.18
9462;BME280;4769;42.660;23.262;2023-08-06T12:33:18;92896.47;;;28.09;51.81
9462;BME280;4769;42.660;23.262;2023-08-06T12:35:44;92887.63;;;28.19;51.06
9462;BME280;4769;42.660;23.262;2023-08-06T12:38:10;92891.38;;;28.00;52.05
9462;BME280;4769;42.660;23.262;2023-08-06T12:40:38;92899.91;;;28.02;52.37
9462;BME280;4769;42.660;23.262;2023-08-06T12:43:04;92896.19;;;28.24;51.20
9462;BME280;4769;42.660;23.262;2023-08-06T12:45:29;92888.22;;;28.45;51.01
9462;BME280;4769;42.660;23.262;2023-08-06T12:47:55;92886.31;;;28.60;48.44
9462;BME280;4769;42.660;23.262;2023-08-06T12:50:20;92892.91;;;28.55;49.32
9462;BME280;4769;42.660;23.262;2023-08-06T12:52:46;92887.75;;;28.36;51.06
9462;BME280;4769;42.660;23.262;2023-08-06T12:55:12;92891.94;;;28.27;51.82
9462;BME280;4769;42.660;23.262;2023-08-06T12:57:40;92890.78;;;28.28;51.38
9462;BME280;4769;42.660;23.262;2023-08-06T13:00:07;92882.94;;;28.12;52.88
9462;BME280;4769;42.660;23.262;2023-08-06T13:02:33;92883.06;;;28.30;52.40